<?xml version='1.0' encoding='UTF-8'?>
<gpx xmlns="http://www.topografix.com/GPX/1/1" creator="www.balnam.be" version="1.1" xmlns:xsi="http://www.w3.org/2001/XMLSchema-instance" xsi:schemaLocation="http://www.topografix.com/GPX/1/1 http://www.topografix.com/GPX/1/1/gpx.xsd">
<trk>
<name>louhs1</name>
<cmt>v</cmt>
<desc>Houtain-Saint-Siméon Chemin n°1 Rue al'Tombe / Rue du Rouwa / Rue du Rouwâ</desc>
<link href="https://chemins.be/houtainsaintsimeon/chemin/1"/><trkseg>
<trkpt lat="50.737065" lon="5.626919"><time>2026-05-08T04:45:08Z</time></trkpt>
<trkpt lat="50.738050" lon="5.623900"><time>2026-05-08T04:55:08Z</time></trkpt>
<trkpt lat="50.738170" lon="5.621905"><time>2026-05-08T05:05:08Z</time></trkpt>
<trkpt lat="50.738191" lon="5.619950"><time>2026-05-08T05:15:08Z</time></trkpt>
<trkpt lat="50.737900" lon="5.618639"><time>2026-05-08T05:25:08Z</time></trkpt>
<trkpt lat="50.737302" lon="5.616605"><time>2026-05-08T05:35:08Z</time></trkpt>
<trkpt lat="50.736895" lon="5.615333"><time>2026-05-08T05:45:08Z</time></trkpt>
</trkseg>
</trk>
<trk>
<name>louhs10</name>
<cmt>v</cmt>
<desc>Houtain-Saint-Siméon Chemin n°10 </desc>
<link href="https://chemins.be/houtainsaintsimeon/chemin/10"/><trkseg>
<trkpt lat="50.744418" lon="5.627918"><time>2026-05-08T04:45:08Z</time></trkpt>
<trkpt lat="50.748465" lon="5.620344"><time>2026-05-08T04:55:08Z</time></trkpt>
<trkpt lat="50.749819" lon="5.618799"><time>2026-05-08T05:05:08Z</time></trkpt>
<trkpt lat="50.750179" lon="5.618327"><time>2026-05-08T05:15:08Z</time></trkpt>
</trkseg>
</trk>
<trk>
<name>louhs11</name>
<cmt>q</cmt>
<desc>Houtain-Saint-Siméon Chemin n°11 </desc>
<link href="https://chemins.be/houtainsaintsimeon/chemin/11"/><trkseg>
<trkpt lat="50.735126" lon="5.613139"><time>2026-05-08T04:45:08Z</time></trkpt>
<trkpt lat="50.734015" lon="5.613620"><time>2026-05-08T04:55:08Z</time></trkpt>
</trkseg>
</trk>
<trk>
<name>louhs12</name>
<cmt>v</cmt>
<desc>Houtain-Saint-Siméon Sentier n°12 </desc>
<link href="https://chemins.be/houtainsaintsimeon/sentier/12"/><trkseg>
<trkpt lat="50.733997" lon="5.613534"><time>2026-05-08T04:45:08Z</time></trkpt>
<trkpt lat="50.733659" lon="5.611417"><time>2026-05-08T04:55:08Z</time></trkpt>
<trkpt lat="50.731624" lon="5.606163"><time>2026-05-08T05:05:08Z</time></trkpt>
</trkseg></trk>
<trk>
<name>louhs12</name>
<cmt>s</cmt>
<desc>Houtain-Saint-Siméon Sentier n°12 </desc>
<link href="https://chemins.be/houtainsaintsimeon/sentier/12"/><trkseg>
<trkpt lat="50.731624" lon="5.606163"><time>2026-05-08T05:05:08Z</time></trkpt>
<trkpt lat="50.729192" lon="5.603216"><time>2026-05-08T05:15:08Z</time></trkpt>
<trkpt lat="50.728221" lon="5.600866"><time>2026-05-08T05:25:08Z</time></trkpt>
<trkpt lat="50.727976" lon="5.599946"><time>2026-05-08T05:35:08Z</time></trkpt>
</trkseg>
</trk>
<trk>
<name>louhs15</name>
<cmt>v</cmt>
<desc>Houtain-Saint-Siméon Chemin/sentier n°15 Rue des Saules</desc>
<link href="https://chemins.be/houtainsaintsimeon/chemin/15"/><trkseg>
<trkpt lat="50.742018" lon="5.603828"><time>2026-05-08T04:45:08Z</time></trkpt>
<trkpt lat="50.742558" lon="5.603317"><time>2026-05-08T04:55:08Z</time></trkpt>
<trkpt lat="50.743196" lon="5.601676"><time>2026-05-08T05:05:08Z</time></trkpt>
<trkpt lat="50.743553" lon="5.600169"><time>2026-05-08T05:15:08Z</time></trkpt>
<trkpt lat="50.743791" lon="5.598900"><time>2026-05-08T05:25:08Z</time></trkpt>
<trkpt lat="50.743948" lon="5.597700"><time>2026-05-08T05:35:08Z</time></trkpt>
<trkpt lat="50.744098" lon="5.597094"><time>2026-05-08T05:45:08Z</time></trkpt>
<trkpt lat="50.744364" lon="5.596634"><time>2026-05-08T05:55:08Z</time></trkpt>
<trkpt lat="50.744497" lon="5.596188"><time>2026-05-08T06:05:08Z</time></trkpt>
<trkpt lat="50.744162" lon="5.595694"><time>2026-05-08T06:15:08Z</time></trkpt>
</trkseg></trk>
<trk>
<name>louhs15</name>
<cmt>q</cmt>
<desc>Houtain-Saint-Siméon Chemin/sentier n°15 Rue des Saules</desc>
<link href="https://chemins.be/houtainsaintsimeon/chemin/15"/><trkseg>
<trkpt lat="50.744162" lon="5.595694"><time>2026-05-08T06:15:08Z</time></trkpt>
<trkpt lat="50.745235" lon="5.595480"><time>2026-05-08T06:25:08Z</time></trkpt>
<trkpt lat="50.746796" lon="5.593498"><time>2026-05-08T06:35:08Z</time></trkpt>
<trkpt lat="50.748548" lon="5.590344"><time>2026-05-08T06:45:08Z</time></trkpt>
</trkseg></trk>
<trk>
<name>louhs15</name>
<cmt>v</cmt>
<desc>Houtain-Saint-Siméon Chemin/sentier n°15 Rue des Saules</desc>
<link href="https://chemins.be/houtainsaintsimeon/chemin/15"/><trkseg>
<trkpt lat="50.748548" lon="5.590344"><time>2026-05-08T06:45:08Z</time></trkpt>
<trkpt lat="50.749163" lon="5.589185"><time>2026-05-08T06:55:08Z</time></trkpt>
<trkpt lat="50.749290" lon="5.588570"><time>2026-05-08T07:05:08Z</time></trkpt>
<trkpt lat="50.749733" lon="5.586396"><time>2026-05-08T07:15:08Z</time></trkpt>
<trkpt lat="50.749471" lon="5.584958"><time>2026-05-08T07:25:08Z</time></trkpt>
</trkseg>
</trk>
<trk>
<name>louhs17</name>
<cmt>q</cmt>
<desc>Houtain-Saint-Siméon Sentier n°17 Rue des Chapeliers / Rue de Wonck / Rue de Roclenge / Chavée Arecht</desc>
<link href="https://chemins.be/houtainsaintsimeon/sentier/17"/><trkseg>
<trkpt lat="50.738153" lon="5.621161"><time>2026-05-08T04:45:08Z</time></trkpt>
<trkpt lat="50.739203" lon="5.620952"><time>2026-05-08T04:55:08Z</time></trkpt>
<trkpt lat="50.740364" lon="5.617835"><time>2026-05-08T05:05:08Z</time></trkpt>
</trkseg></trk>
<trk>
<name>louhs17</name>
<cmt>s</cmt>
<desc>Houtain-Saint-Siméon Sentier n°17 Rue des Chapeliers / Rue de Wonck / Rue de Roclenge / Chavée Arecht</desc>
<link href="https://chemins.be/houtainsaintsimeon/sentier/17"/><trkseg>
<trkpt lat="50.740364" lon="5.617835"><time>2026-05-08T05:05:08Z</time></trkpt>
<trkpt lat="50.740708" lon="5.616443"><time>2026-05-08T05:15:08Z</time></trkpt>
</trkseg></trk>
<trk>
<name>louhs17</name>
<cmt>r</cmt>
<desc>Houtain-Saint-Siméon Sentier n°17 Rue des Chapeliers / Rue de Wonck / Rue de Roclenge / Chavée Arecht</desc>
<link href="https://chemins.be/houtainsaintsimeon/sentier/17"/><trkseg>
<trkpt lat="50.740708" lon="5.616443"><time>2026-05-08T05:15:08Z</time></trkpt>
<trkpt lat="50.740932" lon="5.615338"><time>2026-05-08T05:25:08Z</time></trkpt>
</trkseg></trk>
<trk>
<name>louhs17</name>
<cmt>q</cmt>
<desc>Houtain-Saint-Siméon Sentier n°17 Rue des Chapeliers / Rue de Wonck / Rue de Roclenge / Chavée Arecht</desc>
<link href="https://chemins.be/houtainsaintsimeon/sentier/17"/><trkseg>
<trkpt lat="50.740932" lon="5.615338"><time>2026-05-08T05:25:08Z</time></trkpt>
<trkpt lat="50.741343" lon="5.614952"><time>2026-05-08T05:35:08Z</time></trkpt>
<trkpt lat="50.741786" lon="5.613869"><time>2026-05-08T05:45:08Z</time></trkpt>
</trkseg></trk>
<trk>
<name>louhs17</name>
<cmt>r</cmt>
<desc>Houtain-Saint-Siméon Sentier n°17 Rue des Chapeliers / Rue de Wonck / Rue de Roclenge / Chavée Arecht</desc>
<link href="https://chemins.be/houtainsaintsimeon/sentier/17"/><trkseg>
<trkpt lat="50.741786" lon="5.613869"><time>2026-05-08T05:45:08Z</time></trkpt>
<trkpt lat="50.741602" lon="5.613745"><time>2026-05-08T05:55:08Z</time></trkpt>
<trkpt lat="50.742245" lon="5.612216"><time>2026-05-08T06:05:08Z</time></trkpt>
<trkpt lat="50.742197" lon="5.609870"><time>2026-05-08T06:15:08Z</time></trkpt>
<trkpt lat="50.742426" lon="5.608726"><time>2026-05-08T06:25:08Z</time></trkpt>
</trkseg></trk>
<trk>
<name>louhs17</name>
<cmt>v</cmt>
<desc>Houtain-Saint-Siméon Sentier n°17 Rue des Chapeliers / Rue de Wonck / Rue de Roclenge / Chavée Arecht</desc>
<link href="https://chemins.be/houtainsaintsimeon/sentier/17"/><trkseg>
<trkpt lat="50.742426" lon="5.608726"><time>2026-05-08T06:25:08Z</time></trkpt>
<trkpt lat="50.743400" lon="5.606058"><time>2026-05-08T06:35:08Z</time></trkpt>
<trkpt lat="50.745342" lon="5.604263"><time>2026-05-08T06:45:08Z</time></trkpt>
<trkpt lat="50.745459" lon="5.603934"><time>2026-05-08T06:55:08Z</time></trkpt>
</trkseg></trk>
<trk>
<name>louhs17</name>
<cmt>d</cmt>
<desc>Houtain-Saint-Siméon Sentier n°17 Rue des Chapeliers / Rue de Wonck / Rue de Roclenge / Chavée Arecht</desc>
<link href="https://chemins.be/houtainsaintsimeon/sentier/17"/><trkseg>
<trkpt lat="50.745459" lon="5.603934"><time>2026-05-08T06:55:08Z</time></trkpt>
<trkpt lat="50.746256" lon="5.603412"><time>2026-05-08T07:05:08Z</time></trkpt>
<trkpt lat="50.746805" lon="5.602772"><time>2026-05-08T07:15:08Z</time></trkpt>
</trkseg>
</trk>
<trk>
<name>louhs18</name>
<cmt>v</cmt>
<desc>Houtain-Saint-Siméon Sentier n°18 </desc>
<link href="https://chemins.be/houtainsaintsimeon/sentier/18"/><trkseg>
<trkpt lat="50.739810" lon="5.614533"><time>2026-05-08T04:45:08Z</time></trkpt>
<trkpt lat="50.739584" lon="5.614712"><time>2026-05-08T04:55:08Z</time></trkpt>
<trkpt lat="50.739270" lon="5.614958"><time>2026-05-08T05:05:08Z</time></trkpt>
<trkpt lat="50.737311" lon="5.616498"><time>2026-05-08T05:15:08Z</time></trkpt>
</trkseg>
</trk>
<trk>
<name>louhs19</name>
<cmt>r</cmt>
<desc>Houtain-Saint-Siméon Sentier n°19 </desc>
<link href="https://chemins.be/houtainsaintsimeon/sentier/19"/><trkseg>
<trkpt lat="50.741225" lon="5.621014"><time>2026-05-08T04:45:08Z</time></trkpt>
<trkpt lat="50.740954" lon="5.627853"><time>2026-05-08T04:55:08Z</time></trkpt>
</trkseg>
</trk>
<trk>
<name>louhs2</name>
<cmt>v</cmt>
<desc>Houtain-Saint-Siméon Chemin n°2 Rue des Saules</desc>
<link href="https://chemins.be/houtainsaintsimeon/chemin/2"/><trkseg>
<trkpt lat="50.740699" lon="5.604954"><time>2026-05-08T04:45:08Z</time></trkpt>
<trkpt lat="50.741396" lon="5.604203"><time>2026-05-08T04:55:08Z</time></trkpt>
<trkpt lat="50.741987" lon="5.603928"><time>2026-05-08T05:05:08Z</time></trkpt>
<trkpt lat="50.742214" lon="5.603984"><time>2026-05-08T05:15:08Z</time></trkpt>
<trkpt lat="50.744787" lon="5.603292"><time>2026-05-08T05:25:08Z</time></trkpt>
<trkpt lat="50.745943" lon="5.603061"><time>2026-05-08T05:35:08Z</time></trkpt>
</trkseg>
</trk>
<trk>
<name>louhs20</name>
<cmt>v</cmt>
<desc>Houtain-Saint-Siméon Sentier n°20 </desc>
<link href="https://chemins.be/houtainsaintsimeon/sentier/20"/><trkseg>
<trkpt lat="50.736628" lon="5.612626"><time>2026-05-08T04:45:08Z</time></trkpt>
<trkpt lat="50.736773" lon="5.612515"><time>2026-05-08T04:55:08Z</time></trkpt>
<trkpt lat="50.737516" lon="5.611576"><time>2026-05-08T05:05:08Z</time></trkpt>
<trkpt lat="50.737815" lon="5.611194"><time>2026-05-08T05:15:08Z</time></trkpt>
</trkseg></trk>
<trk>
<name>louhs20</name>
<cmt>r</cmt>
<desc>Houtain-Saint-Siméon Sentier n°20 </desc>
<link href="https://chemins.be/houtainsaintsimeon/sentier/20"/><trkseg>
<trkpt lat="50.737815" lon="5.611194"><time>2026-05-08T05:15:08Z</time></trkpt>
<trkpt lat="50.738186" lon="5.610765"><time>2026-05-08T05:25:08Z</time></trkpt>
</trkseg>
</trk>
<trk>
<name>louhs21</name>
<cmt>v</cmt>
<desc>Houtain-Saint-Siméon Sentier n°21 Ruelle Martienne</desc>
<link href="https://chemins.be/houtainsaintsimeon/sentier/21"/><trkseg>
<trkpt lat="50.740807" lon="5.593556"><time>2026-05-08T04:45:08Z</time></trkpt>
<trkpt lat="50.748365" lon="5.590087"><time>2026-05-08T04:55:08Z</time></trkpt>
<trkpt lat="50.748566" lon="5.590380"><time>2026-05-08T05:05:08Z</time></trkpt>
<trkpt lat="50.749293" lon="5.588552"><time>2026-05-08T05:15:08Z</time></trkpt>
</trkseg></trk>
<trk>
<name>louhs21</name>
<cmt>d</cmt>
<desc>Houtain-Saint-Siméon Sentier n°21 Ruelle Martienne</desc>
<link href="https://chemins.be/houtainsaintsimeon/sentier/21"/><trkseg>
<trkpt lat="50.749293" lon="5.588552"><time>2026-05-08T05:15:08Z</time></trkpt>
<trkpt lat="50.749940" lon="5.586902"><time>2026-05-08T05:25:08Z</time></trkpt>
<trkpt lat="50.750607" lon="5.586719"><time>2026-05-08T05:35:08Z</time></trkpt>
</trkseg></trk>
<trk>
<name>louhs21</name>
<cmt>r</cmt>
<desc>Houtain-Saint-Siméon Sentier n°21 Ruelle Martienne</desc>
<link href="https://chemins.be/houtainsaintsimeon/sentier/21"/><trkseg>
<trkpt lat="50.750607" lon="5.586719"><time>2026-05-08T05:35:08Z</time></trkpt>
<trkpt lat="50.751506" lon="5.586358"><time>2026-05-08T05:45:08Z</time></trkpt>
</trkseg>
</trk>
<trk>
<name>louhs22</name>
<cmt>q</cmt>
<desc>Houtain-Saint-Siméon Sentier n°22 </desc>
<link href="https://chemins.be/houtainsaintsimeon/sentier/22"/><trkseg>
<trkpt lat="50.746187" lon="5.611945"><time>2026-05-08T04:45:08Z</time></trkpt>
<trkpt lat="50.744142" lon="5.610221"><time>2026-05-08T04:55:08Z</time></trkpt>
<trkpt lat="50.742218" lon="5.609770"><time>2026-05-08T05:05:08Z</time></trkpt>
</trkseg></trk>
<trk>
<name>louhs22</name>
<cmt>v</cmt>
<desc>Houtain-Saint-Siméon Sentier n°22 </desc>
<link href="https://chemins.be/houtainsaintsimeon/sentier/22"/><trkseg>
<trkpt lat="50.742218" lon="5.609770"><time>2026-05-08T05:05:08Z</time></trkpt>
<trkpt lat="50.741595" lon="5.609385"><time>2026-05-08T05:15:08Z</time></trkpt>
<trkpt lat="50.741094" lon="5.608253"><time>2026-05-08T05:25:08Z</time></trkpt>
<trkpt lat="50.741115" lon="5.607091"><time>2026-05-08T05:35:08Z</time></trkpt>
<trkpt lat="50.740220" lon="5.605863"><time>2026-05-08T05:45:08Z</time></trkpt>
</trkseg>
</trk>
<trk>
<name>louhs23</name>
<cmt>q</cmt>
<desc>Houtain-Saint-Siméon Sentier n°23 </desc>
<link href="https://chemins.be/houtainsaintsimeon/sentier/23"/><trkseg>
<trkpt lat="50.742988" lon="5.606871"><time>2026-05-08T04:45:08Z</time></trkpt>
<trkpt lat="50.742707" lon="5.606198"><time>2026-05-08T04:55:08Z</time></trkpt>
</trkseg></trk>
<trk>
<name>louhs23</name>
<cmt>v</cmt>
<desc>Houtain-Saint-Siméon Sentier n°23 </desc>
<link href="https://chemins.be/houtainsaintsimeon/sentier/23"/><trkseg>
<trkpt lat="50.742707" lon="5.606198"><time>2026-05-08T04:55:08Z</time></trkpt>
<trkpt lat="50.742580" lon="5.604928"><time>2026-05-08T05:05:08Z</time></trkpt>
</trkseg></trk>
<trk>
<name>louhs23</name>
<cmt>q</cmt>
<desc>Houtain-Saint-Siméon Sentier n°23 </desc>
<link href="https://chemins.be/houtainsaintsimeon/sentier/23"/><trkseg>
<trkpt lat="50.742580" lon="5.604928"><time>2026-05-08T05:05:08Z</time></trkpt>
<trkpt lat="50.742763" lon="5.603726"><time>2026-05-08T05:15:08Z</time></trkpt>
<trkpt lat="50.742978" lon="5.602310"><time>2026-05-08T05:25:08Z</time></trkpt>
</trkseg>
</trk>
<trk>
<name>louhs23bis</name>
<cmt>v</cmt>
<desc>Houtain-Saint-Siméon Sentier n°23bis </desc>
<link href="https://chemins.be/houtainsaintsimeon/sentier/23bis"/><trkseg>
<trkpt lat="50.742170" lon="5.603885"><time>2026-05-08T04:45:08Z</time></trkpt>
<trkpt lat="50.742571" lon="5.604976"><time>2026-05-08T04:55:08Z</time></trkpt>
</trkseg>
</trk>
<trk>
<name>louhs24</name>
<cmt>r</cmt>
<desc>Houtain-Saint-Siméon Sentier n°24 Rue Haut-Vinâve</desc>
<link href="https://chemins.be/houtainsaintsimeon/sentier/24"/><trkseg>
<trkpt lat="50.735619" lon="5.612909"><time>2026-05-08T04:45:08Z</time></trkpt>
<trkpt lat="50.735343" lon="5.612089"><time>2026-05-08T04:55:08Z</time></trkpt>
</trkseg></trk>
<trk>
<name>louhs24</name>
<cmt>v</cmt>
<desc>Houtain-Saint-Siméon Sentier n°24 Rue Haut-Vinâve</desc>
<link href="https://chemins.be/houtainsaintsimeon/sentier/24"/><trkseg>
<trkpt lat="50.735343" lon="5.612089"><time>2026-05-08T04:55:08Z</time></trkpt>
<trkpt lat="50.734757" lon="5.610574"><time>2026-05-08T05:05:08Z</time></trkpt>
</trkseg></trk>
<trk>
<name>louhs24</name>
<cmt>q</cmt>
<desc>Houtain-Saint-Siméon Sentier n°24 Rue Haut-Vinâve</desc>
<link href="https://chemins.be/houtainsaintsimeon/sentier/24"/><trkseg>
<trkpt lat="50.734757" lon="5.610574"><time>2026-05-08T05:05:08Z</time></trkpt>
<trkpt lat="50.733079" lon="5.605484"><time>2026-05-08T05:15:08Z</time></trkpt>
<trkpt lat="50.730298" lon="5.601533"><time>2026-05-08T05:25:08Z</time></trkpt>
<trkpt lat="50.729958" lon="5.600686"><time>2026-05-08T05:35:08Z</time></trkpt>
</trkseg>
</trk>
<trk>
<name>louhs25</name>
<cmt>r</cmt>
<desc>Houtain-Saint-Siméon Sentier n°25 Rue des Bannes</desc>
<link href="https://chemins.be/houtainsaintsimeon/sentier/25"/><trkseg>
<trkpt lat="50.752388" lon="5.594529"><time>2026-05-08T04:45:08Z</time></trkpt>
<trkpt lat="50.752350" lon="5.592859"><time>2026-05-08T04:55:08Z</time></trkpt>
<trkpt lat="50.751863" lon="5.591890"><time>2026-05-08T05:05:08Z</time></trkpt>
</trkseg></trk>
<trk>
<name>louhs25</name>
<cmt>q</cmt>
<desc>Houtain-Saint-Siméon Sentier n°25 Rue des Bannes</desc>
<link href="https://chemins.be/houtainsaintsimeon/sentier/25"/><trkseg>
<trkpt lat="50.751863" lon="5.591890"><time>2026-05-08T05:05:08Z</time></trkpt>
<trkpt lat="50.750774" lon="5.591574"><time>2026-05-08T05:15:08Z</time></trkpt>
</trkseg></trk>
<trk>
<name>louhs25</name>
<cmt>s</cmt>
<desc>Houtain-Saint-Siméon Sentier n°25 Rue des Bannes</desc>
<link href="https://chemins.be/houtainsaintsimeon/sentier/25"/><trkseg>
<trkpt lat="50.750774" lon="5.591574"><time>2026-05-08T05:15:08Z</time></trkpt>
<trkpt lat="50.750413" lon="5.590045"><time>2026-05-08T05:25:08Z</time></trkpt>
</trkseg>
</trk>
<trk>
<name>louhs26</name>
<cmt>q</cmt>
<desc>Houtain-Saint-Siméon Sentier n°26 </desc>
<link href="https://chemins.be/houtainsaintsimeon/sentier/26"/><trkseg>
<trkpt lat="50.754218" lon="5.592449"><time>2026-05-08T04:45:08Z</time></trkpt>
<trkpt lat="50.754176" lon="5.590857"><time>2026-05-08T04:55:08Z</time></trkpt>
<trkpt lat="50.753839" lon="5.589048"><time>2026-05-08T05:05:08Z</time></trkpt>
<trkpt lat="50.753794" lon="5.588300"><time>2026-05-08T05:15:08Z</time></trkpt>
<trkpt lat="50.754093" lon="5.587184"><time>2026-05-08T05:25:08Z</time></trkpt>
<trkpt lat="50.754088" lon="5.586097"><time>2026-05-08T05:35:08Z</time></trkpt>
</trkseg></trk>
<trk>
<name>louhs26</name>
<cmt>r</cmt>
<desc>Houtain-Saint-Siméon Sentier n°26 </desc>
<link href="https://chemins.be/houtainsaintsimeon/sentier/26"/><trkseg>
<trkpt lat="50.754088" lon="5.586097"><time>2026-05-08T05:35:08Z</time></trkpt>
<trkpt lat="50.753151" lon="5.585668"><time>2026-05-08T05:45:08Z</time></trkpt>
</trkseg></trk>
<trk>
<name>louhs26</name>
<cmt>q</cmt>
<desc>Houtain-Saint-Siméon Sentier n°26 </desc>
<link href="https://chemins.be/houtainsaintsimeon/sentier/26"/><trkseg>
<trkpt lat="50.753151" lon="5.585668"><time>2026-05-08T05:45:08Z</time></trkpt>
<trkpt lat="50.752567" lon="5.584276"><time>2026-05-08T05:55:08Z</time></trkpt>
<trkpt lat="50.752401" lon="5.582926"><time>2026-05-08T06:05:08Z</time></trkpt>
</trkseg>
</trk>
<trk>
<name>louhs27</name>
<cmt>q</cmt>
<desc>Houtain-Saint-Siméon Sentier n°27 </desc>
<link href="https://chemins.be/houtainsaintsimeon/sentier/27"/><trkseg>
<trkpt lat="50.734111" lon="5.613611"><time>2026-05-08T04:45:08Z</time></trkpt>
<trkpt lat="50.735433" lon="5.615404"><time>2026-05-08T04:55:08Z</time></trkpt>
<trkpt lat="50.736626" lon="5.616038"><time>2026-05-08T05:05:08Z</time></trkpt>
<trkpt lat="50.737202" lon="5.616357"><time>2026-05-08T05:15:08Z</time></trkpt>
</trkseg>
</trk>
<trk>
<name>louhs28</name>
<cmt>q</cmt>
<desc>Houtain-Saint-Siméon Sentier n°28 </desc>
<link href="https://chemins.be/houtainsaintsimeon/sentier/28"/><trkseg>
<trkpt lat="50.733891" lon="5.601445"><time>2026-05-08T04:45:08Z</time></trkpt>
<trkpt lat="50.730781" lon="5.596080"><time>2026-05-08T04:55:08Z</time></trkpt>
</trkseg>
</trk>
<trk>
<name>louhs3</name>
<cmt>v</cmt>
<desc>Houtain-Saint-Siméon Chemin n°3 </desc>
<link href="https://chemins.be/houtainsaintsimeon/chemin/3"/><trkseg>
<trkpt lat="50.746724" lon="5.616664"><time>2026-05-08T04:45:08Z</time></trkpt>
<trkpt lat="50.747864" lon="5.617779"><time>2026-05-08T04:55:08Z</time></trkpt>
<trkpt lat="50.749880" lon="5.618713"><time>2026-05-08T05:05:08Z</time></trkpt>
</trkseg>
</trk>
<trk>
<name>louhs5</name>
<cmt>v</cmt>
<desc>Houtain-Saint-Siméon Chemin n°5 </desc>
<link href="https://chemins.be/houtainsaintsimeon/chemin/5"/><trkseg>
<trkpt lat="50.735849" lon="5.603695"><time>2026-05-08T04:45:08Z</time></trkpt>
<trkpt lat="50.734654" lon="5.602295"><time>2026-05-08T04:55:08Z</time></trkpt>
<trkpt lat="50.733915" lon="5.601529"><time>2026-05-08T05:05:08Z</time></trkpt>
<trkpt lat="50.733687" lon="5.601403"><time>2026-05-08T05:15:08Z</time></trkpt>
</trkseg></trk>
<trk>
<name>louhs5</name>
<cmt>s</cmt>
<desc>Houtain-Saint-Siméon Chemin n°5 </desc>
<link href="https://chemins.be/houtainsaintsimeon/chemin/5"/><trkseg>
<trkpt lat="50.733687" lon="5.601403"><time>2026-05-08T05:15:08Z</time></trkpt>
<trkpt lat="50.732336" lon="5.600490"><time>2026-05-08T05:25:08Z</time></trkpt>
<trkpt lat="50.727813" lon="5.599954"><time>2026-05-08T05:35:08Z</time></trkpt>
<trkpt lat="50.726211" lon="5.599235"><time>2026-05-08T05:45:08Z</time></trkpt>
<trkpt lat="50.725470" lon="5.598591"><time>2026-05-08T05:55:08Z</time></trkpt>
</trkseg>
</trk>
<trk>
<name>louhs6</name>
<cmt>q</cmt>
<desc>Houtain-Saint-Siméon Chemin n°6 Thier au Pèkèt / Chavée Arecht / Thier au Pèquet</desc>
<link href="https://chemins.be/houtainsaintsimeon/chemin/6"/><trkseg>
<trkpt lat="50.733990" lon="5.593125"><time>2026-05-08T04:45:08Z</time></trkpt>
<trkpt lat="50.735060" lon="5.594159"><time>2026-05-08T04:55:08Z</time></trkpt>
</trkseg></trk>
<trk>
<name>louhs6</name>
<cmt>v</cmt>
<desc>Houtain-Saint-Siméon Chemin n°6 Thier au Pèkèt / Chavée Arecht / Thier au Pèquet</desc>
<link href="https://chemins.be/houtainsaintsimeon/chemin/6"/><trkseg>
<trkpt lat="50.735060" lon="5.594159"><time>2026-05-08T04:55:08Z</time></trkpt>
<trkpt lat="50.736432" lon="5.595945"><time>2026-05-08T05:05:08Z</time></trkpt>
<trkpt lat="50.737810" lon="5.597412"><time>2026-05-08T05:15:08Z</time></trkpt>
<trkpt lat="50.739025" lon="5.598138"><time>2026-05-08T05:25:08Z</time></trkpt>
<trkpt lat="50.739943" lon="5.598941"><time>2026-05-08T05:35:08Z</time></trkpt>
<trkpt lat="50.740816" lon="5.599673"><time>2026-05-08T05:45:08Z</time></trkpt>
<trkpt lat="50.741278" lon="5.600223"><time>2026-05-08T05:55:08Z</time></trkpt>
<trkpt lat="50.741491" lon="5.600441"><time>2026-05-08T06:05:08Z</time></trkpt>
<trkpt lat="50.741803" lon="5.600705"><time>2026-05-08T06:15:08Z</time></trkpt>
<trkpt lat="50.742536" lon="5.601177"><time>2026-05-08T06:25:08Z</time></trkpt>
<trkpt lat="50.743080" lon="5.601574"><time>2026-05-08T06:35:08Z</time></trkpt>
<trkpt lat="50.743177" lon="5.601732"><time>2026-05-08T06:45:08Z</time></trkpt>
<trkpt lat="50.744833" lon="5.603250"><time>2026-05-08T06:55:08Z</time></trkpt>
<trkpt lat="50.745500" lon="5.604025"><time>2026-05-08T07:05:08Z</time></trkpt>
<trkpt lat="50.749781" lon="5.608960"><time>2026-05-08T07:15:08Z</time></trkpt>
<trkpt lat="50.751331" lon="5.609556"><time>2026-05-08T07:25:08Z</time></trkpt>
<trkpt lat="50.751661" lon="5.609813"><time>2026-05-08T07:35:08Z</time></trkpt>
</trkseg>
</trk>
<trk>
<name>louhs7</name>
<cmt>v</cmt>
<desc>Houtain-Saint-Siméon Chemin n°7 </desc>
<link href="https://chemins.be/houtainsaintsimeon/chemin/7"/><trkseg>
<trkpt lat="50.734081" lon="5.594471"><time>2026-05-08T04:45:08Z</time></trkpt>
<trkpt lat="50.735086" lon="5.594121"><time>2026-05-08T04:55:08Z</time></trkpt>
<trkpt lat="50.740831" lon="5.593665"><time>2026-05-08T05:05:08Z</time></trkpt>
<trkpt lat="50.743591" lon="5.594741"><time>2026-05-08T05:15:08Z</time></trkpt>
<trkpt lat="50.744551" lon="5.596286"><time>2026-05-08T05:25:08Z</time></trkpt>
<trkpt lat="50.746877" lon="5.597602"><time>2026-05-08T05:35:08Z</time></trkpt>
<trkpt lat="50.748922" lon="5.597559"><time>2026-05-08T05:45:08Z</time></trkpt>
<trkpt lat="50.750298" lon="5.597974"><time>2026-05-08T05:55:08Z</time></trkpt>
</trkseg>
</trk>
<trk>
<name>louhsi1</name>
<cmt>q</cmt>
<desc>Houtain-Saint-Siméon Sentier n°i1 </desc>
<link href="https://chemins.be/houtainsaintsimeon/sentier/i1"/><trkseg>
<trkpt lat="50.743318" lon="5.606080"><time>2026-05-08T04:45:08Z</time></trkpt>
<trkpt lat="50.742728" lon="5.606152"><time>2026-05-08T04:55:08Z</time></trkpt>
<trkpt lat="50.742150" lon="5.606223"><time>2026-05-08T05:05:08Z</time></trkpt>
<trkpt lat="50.741114" lon="5.607088"><time>2026-05-08T05:15:08Z</time></trkpt>
</trkseg>
</trk>
<trk>
<name>louhsi2</name>
<cmt>v</cmt>
<desc>Houtain-Saint-Siméon Chemin n°i2 </desc>
<link href="https://chemins.be/houtainsaintsimeon/chemin/i2"/><trkseg>
<trkpt lat="50.731586" lon="5.606151"><time>2026-05-08T04:45:08Z</time></trkpt>
<trkpt lat="50.730198" lon="5.596576"><time>2026-05-08T04:55:08Z</time></trkpt>
</trkseg>
</trk>
<trk>
<name>louhsLv820B</name>
<cmt>v</cmt>
<desc>Houtain-Saint-Siméon Chemin n°Lv820B RAVeL / Rue de la Station</desc>
<link href="https://chemins.be/houtainsaintsimeon/chemin/Lv820B"/><trkseg>
<trkpt lat="50.737936" lon="5.618583"><time>2026-05-08T04:45:08Z</time></trkpt>
<trkpt lat="50.739120" lon="5.615526"><time>2026-05-08T04:55:08Z</time></trkpt>
<trkpt lat="50.739815" lon="5.614698"><time>2026-05-08T05:05:08Z</time></trkpt>
</trkseg></trk>
<trk>
<name>louhsLv820B</name>
<cmt>q</cmt>
<desc>Houtain-Saint-Siméon Chemin n°Lv820B RAVeL / Rue de la Station</desc>
<link href="https://chemins.be/houtainsaintsimeon/chemin/Lv820B"/><trkseg>
<trkpt lat="50.739815" lon="5.614698"><time>2026-05-08T05:05:08Z</time></trkpt>
<trkpt lat="50.741412" lon="5.613617"><time>2026-05-08T05:15:08Z</time></trkpt>
</trkseg></trk>
<trk>
<name>louhsLv820B</name>
<cmt>r</cmt>
<desc>Houtain-Saint-Siméon Chemin n°Lv820B RAVeL / Rue de la Station</desc>
<link href="https://chemins.be/houtainsaintsimeon/chemin/Lv820B"/><trkseg>
<trkpt lat="50.741412" lon="5.613617"><time>2026-05-08T05:15:08Z</time></trkpt>
<trkpt lat="50.742436" lon="5.614387"><time>2026-05-08T05:25:08Z</time></trkpt>
<trkpt lat="50.746874" lon="5.616665"><time>2026-05-08T05:35:08Z</time></trkpt>
</trkseg></trk>
<trk>
<name>louhsLv820B</name>
<cmt>v</cmt>
<desc>Houtain-Saint-Siméon Chemin n°Lv820B RAVeL / Rue de la Station</desc>
<link href="https://chemins.be/houtainsaintsimeon/chemin/Lv820B"/><trkseg>
<trkpt lat="50.746874" lon="5.616665"><time>2026-05-08T05:35:08Z</time></trkpt>
<trkpt lat="50.748214" lon="5.617099"><time>2026-05-08T05:45:08Z</time></trkpt>
<trkpt lat="50.749148" lon="5.616619"><time>2026-05-08T05:55:08Z</time></trkpt>
</trkseg>
</trk>
</gpx>